Terminal Aerodrome Forecast
Issued by NWS

Home | Current Version | Previous Version | Text Only | Print | Product List | Glossary On
Versions: 1 2 3 4 5 6 7 8 9 10 11 12 13 14
000
FTUS44 KLZK 260500
TAFHRO
TAF
KHRO 260520Z 2606/2706 32010G18KT P6SM OVC015
     FM261000 29006KT P6SM SCT009 OVC015
      TEMPO 2610/2614 BKN009
     FM261600 27008KT P6SM SCT020
     FM261900 25010G18KT P6SM SKC
     FM270000 28006KT P6SM SKC=

USA.gov is the U.S. government's official web portal to all federal, state and local government web resources and services.